createdAt,value
2018-11-01T00:00:38.668Z,15.05
2018-11-01T00:03:07.278Z,12.82
2018-11-01T00:05:35.769Z,15.50
2018-11-01T00:08:04.562Z,12.07
2018-11-01T00:10:33.173Z,10.03
2018-11-01T00:13:01.594Z,14.05
2018-11-01T00:15:30.185Z,16.12
2018-11-01T00:17:58.763Z,17.48
2018-11-01T00:20:29.681Z,18.12
2018-11-01T00:23:03.124Z,14.93
2018-11-01T00:25:31.917Z,11.83
2018-11-01T00:28:00.690Z,14.68
2018-11-01T00:30:29.177Z,11.40
2018-11-01T00:32:57.805Z,13.08
2018-11-01T00:35:26.547Z,13.60
2018-11-01T00:37:55.884Z,11.57
2018-11-01T00:40:24.524Z,12.65
2018-11-01T00:42:53.324Z,15.23
2018-11-01T00:45:22.126Z,14.80
2018-11-01T00:47:50.797Z,14.75
2018-11-01T00:50:19.555Z,15.23
2018-11-01T00:52:48.332Z,14.78
2018-11-01T00:55:16.873Z,12.07
2018-11-01T00:57:45.591Z,12.63
2018-11-01T01:00:15.297Z,11.12
2018-11-01T01:02:43.766Z,11.85
2018-11-01T01:05:12.560Z,14.50
2018-11-01T01:07:41.272Z,16.12
2018-11-01T01:10:14.209Z,14.43
2018-11-01T01:12:44.256Z,9.95
2018-11-01T01:15:13.045Z,15.95
2018-11-01T01:17:41.499Z,11.22
2018-11-01T01:20:12.850Z,15.78
2018-11-01T01:22:42.648Z,13.65
2018-11-01T01:25:12.924Z,12.07
2018-11-01T01:27:41.684Z,10.53
2018-11-01T01:30:19.192Z,10.78
2018-11-01T01:32:48.217Z,10.58
2018-11-01T01:35:17.103Z,17.37
2018-11-01T01:37:46.046Z,16.00
2018-11-01T01:40:14.972Z,13.22
2018-11-01T01:42:52.552Z,16.95
2018-11-01T01:45:21.542Z,11.25
2018-11-01T01:47:50.905Z,11.50
2018-11-01T01:50:20.234Z,12.45
2018-11-01T01:52:49.367Z,12.60
2018-11-01T01:55:24.571Z,11.85
2018-11-01T01:57:53.485Z,10.65
2018-11-01T02:00:22.512Z,16.82
2018-11-01T02:02:52.682Z,10.90
2018-11-01T02:05:21.543Z,12.50
2018-11-01T02:07:50.765Z,12.05
2018-11-01T02:10:19.440Z,12.78
2018-11-01T02:12:48.361Z,13.72
2018-11-01T02:15:18.538Z,10.65
2018-11-01T02:17:47.103Z,14.10
2018-11-01T02:20:17.176Z,11.00
2018-11-01T02:23:06.527Z,11.63
2018-11-01T02:25:35.832Z,13.30
2018-11-01T02:28:11.230Z,13.45
2018-11-01T02:30:39.904Z,9.30
2018-11-01T02:33:09.086Z,15.78
2018-11-01T02:35:37.689Z,13.25
2018-11-01T02:38:06.184Z,12.63
2018-11-01T02:40:34.725Z,17.55
2018-11-01T02:43:03.699Z,10.40
2018-11-01T02:45:32.338Z,10.40
2018-11-01T02:48:01.090Z,11.12
2018-11-01T02:50:30.187Z,14.90
2018-11-01T02:52:59.285Z,9.18
2018-11-01T02:55:27.916Z,10.10
2018-11-01T02:57:56.486Z,10.13
2018-11-01T03:00:26.045Z,13.35
2018-11-01T03:02:54.975Z,10.93
2018-11-01T03:05:23.828Z,10.38
2018-11-01T03:07:52.352Z,15.10
2018-11-01T03:10:21.081Z,11.10
2018-11-01T03:12:50.012Z,12.25
2018-11-01T03:15:18.722Z,10.63
2018-11-01T03:17:47.519Z,11.97
2018-11-01T03:20:16.718Z,11.75
2018-11-01T03:22:45.843Z,11.90
2018-11-01T03:25:14.920Z,12.10
2018-11-01T03:27:43.785Z,9.75
2018-11-01T03:30:12.637Z,9.18
2018-11-01T03:32:41.402Z,12.58
2018-11-01T03:35:11.291Z,10.85
2018-11-01T03:37:40.281Z,10.75
2018-11-01T03:40:10.588Z,12.98
2018-11-01T03:42:39.667Z,14.83
2018-11-01T03:45:09.700Z,11.30
2018-11-01T03:47:38.334Z,10.05
2018-11-01T03:50:07.295Z,10.82
2018-11-01T03:52:35.883Z,10.48
2018-11-01T03:55:06.068Z,13.70
2018-11-01T03:57:34.868Z,11.18
2018-11-01T04:00:04.248Z,12.63
2018-11-01T04:02:32.771Z,9.68
2018-11-01T04:05:01.311Z,11.22
2018-11-01T04:07:29.800Z,12.80
2018-11-01T04:09:58.199Z,8.80
2018-11-01T04:12:26.553Z,13.30
2018-11-01T04:14:55.038Z,12.75
2018-11-01T04:17:23.480Z,14.73
2018-11-01T04:19:51.986Z,11.93
2018-11-01T04:22:20.403Z,12.47
2018-11-01T04:24:48.835Z,14.05
2018-11-01T04:27:17.334Z,13.68
2018-11-01T04:29:45.771Z,12.43
2018-11-01T04:32:14.249Z,12.73
2018-11-01T04:34:42.662Z,9.83
2018-11-01T04:37:11.117Z,14.78
2018-11-01T04:39:39.718Z,11.90
2018-11-01T04:42:08.815Z,10.70
2018-11-01T04:44:37.536Z,12.10
2018-11-01T04:47:06.615Z,10.65
2018-11-01T04:49:36.128Z,10.32
2018-11-01T04:52:05.430Z,10.38
2018-11-01T04:54:33.910Z,14.50
2018-11-01T04:57:02.372Z,10.05
2018-11-01T04:59:30.857Z,11.00
2018-11-01T05:01:59.451Z,9.40
2018-11-01T05:04:28.240Z,11.05
2018-11-01T05:06:56.800Z,9.20
2018-11-01T05:09:25.314Z,15.10
2018-11-01T05:11:53.873Z,11.18
2018-11-01T05:14:22.209Z,10.32
2018-11-01T05:16:50.588Z,9.38
2018-11-01T05:19:19.076Z,10.28
2018-11-01T05:21:47.606Z,10.43
2018-11-01T05:24:16.072Z,12.80
2018-11-01T05:26:44.505Z,12.63
2018-11-01T05:29:12.898Z,13.60
2018-11-01T05:31:41.410Z,12.15
2018-11-01T05:34:10.087Z,8.85
2018-11-01T05:36:38.600Z,14.38
2018-11-01T05:39:10.865Z,10.20
2018-11-01T05:41:39.298Z,11.20
2018-11-01T05:44:07.802Z,12.35
2018-11-01T05:46:36.352Z,8.20
2018-11-01T05:49:05.386Z,13.60
2018-11-01T05:51:33.987Z,9.70
2018-11-01T05:54:02.317Z,15.40
2018-11-01T05:56:30.838Z,11.65
2018-11-01T05:58:59.281Z,9.65
2018-11-01T06:01:34.405Z,9.05
2018-11-01T06:04:03.619Z,9.75
2018-11-01T06:06:32.620Z,13.10
2018-11-01T06:09:02.580Z,12.55
2018-11-01T06:11:31.037Z,9.93
2018-11-01T06:13:59.456Z,13.35
2018-11-01T06:16:27.775Z,9.80
2018-11-01T06:18:56.375Z,16.20
2018-11-01T06:21:26.888Z,9.48
2018-11-01T06:23:55.694Z,14.45
2018-11-01T06:26:24.323Z,13.10
2018-11-01T06:28:52.586Z,14.68
2018-11-01T06:31:21.010Z,10.88
2018-11-01T06:33:49.356Z,9.40
2018-11-01T06:36:17.781Z,10.20
2018-11-01T06:38:46.278Z,9.08
2018-11-01T06:41:15.005Z,14.80
2018-11-01T06:43:43.462Z,10.30
2018-11-01T06:46:12.365Z,12.75
2018-11-01T06:48:40.850Z,9.63
2018-11-01T06:51:09.283Z,10.43
2018-11-01T06:53:37.741Z,12.63
2018-11-01T06:56:06.684Z,9.00
2018-11-01T06:58:35.466Z,9.85
2018-11-01T07:01:11.349Z,8.38
2018-11-01T07:03:39.875Z,10.25
2018-11-01T07:06:08.279Z,10.15
2018-11-01T07:08:36.742Z,9.40
2018-11-01T07:11:05.986Z,12.65
2018-11-01T07:13:34.400Z,11.80
2018-11-01T07:16:02.864Z,11.25
2018-11-01T07:18:31.364Z,11.30
2018-11-01T07:20:59.913Z,15.13
2018-11-01T07:23:28.826Z,10.88
2018-11-01T07:25:57.251Z,13.90
2018-11-01T07:28:25.830Z,14.13
2018-11-01T07:30:56.035Z,11.25
2018-11-01T07:33:25.129Z,10.63
2018-11-01T07:35:53.826Z,9.80
2018-11-01T07:38:22.710Z,11.03
2018-11-01T07:40:51.470Z,9.80
2018-11-01T07:43:19.920Z,9.70
2018-11-01T07:45:48.627Z,16.90
2018-11-01T07:48:17.118Z,10.82
2018-11-01T07:50:45.537Z,26.25
2018-11-01T07:53:15.254Z,13.70
2018-11-01T07:55:43.992Z,19.80
2018-11-01T07:58:15.121Z,18.48
2018-11-01T08:00:46.561Z,15.48
2018-11-01T08:03:18.627Z,14.45
2018-11-01T08:05:47.416Z,22.20
2018-11-01T08:08:16.529Z,19.57
2018-11-01T08:10:45.122Z,14.80
2018-11-01T08:13:13.981Z,11.15
2018-11-01T08:15:42.523Z,17.27
2018-11-01T08:18:11.251Z,11.38
2018-11-01T08:20:40.966Z,13.48
2018-11-01T08:23:09.882Z,14.18
2018-11-01T08:25:38.709Z,15.05
2018-11-01T08:28:08.524Z,12.00
2018-11-01T08:30:37.082Z,11.57
2018-11-01T08:33:06.172Z,11.10
2018-11-01T08:35:35.525Z,12.43
2018-11-01T08:38:08.121Z,12.78
2018-11-01T08:40:37.308Z,14.90
2018-11-01T08:43:06.004Z,12.13
2018-11-01T08:45:34.561Z,12.07
2018-11-01T08:48:03.240Z,14.75
2018-11-01T08:50:31.979Z,12.75
2018-11-01T08:53:00.608Z,11.03
2018-11-01T08:55:29.287Z,19.48
2018-11-01T08:57:57.881Z,19.82
2018-11-01T09:00:26.983Z,10.90
2018-11-01T09:02:55.491Z,14.68
2018-11-01T09:05:23.977Z,12.18
2018-11-01T09:07:52.709Z,17.17
2018-11-01T09:10:21.163Z,13.53
2018-11-01T09:12:49.763Z,14.68
2018-11-01T09:15:24.376Z,19.82
2018-11-01T09:17:53.040Z,15.93
2018-11-01T09:20:22.456Z,15.58
2018-11-01T09:22:55.918Z,14.20
2018-11-01T09:25:25.171Z,20.15
2018-11-01T09:27:56.550Z,16.52
2018-11-01T09:30:27.705Z,20.43
2018-11-01T09:32:58.656Z,17.57
2018-11-01T09:35:29.822Z,21.77
2018-11-01T09:37:58.533Z,16.55
2018-11-01T09:40:27.474Z,20.95
2018-11-01T09:42:56.304Z,16.90
2018-11-01T09:48:19.477Z,20.40
2018-11-01T09:50:48.828Z,26.33
2018-11-01T09:53:17.990Z,18.05
2018-11-01T09:55:47.333Z,19.25
2018-11-01T09:58:15.793Z,17.42
2018-11-01T10:00:45.003Z,21.17
2018-11-01T10:03:14.137Z,18.62
2018-11-01T10:05:43.923Z,17.92
2018-11-01T10:25:51.596Z,10.82
2018-11-01T10:28:20.809Z,13.32
2018-11-01T10:30:49.869Z,11.22
2018-11-01T10:33:18.446Z,11.95
2018-11-01T10:35:47.311Z,14.05
2018-11-01T10:38:16.390Z,13.70
2018-11-01T10:40:45.368Z,16.75
2018-11-01T10:43:14.547Z,17.80
2018-11-01T10:45:45.500Z,16.60
2018-11-01T10:48:14.182Z,15.78
2018-11-01T10:50:46.501Z,14.63
2018-11-01T10:53:15.017Z,15.18
2018-11-01T10:55:43.990Z,14.07
2018-11-01T10:58:12.734Z,16.12
2018-11-01T11:00:48.604Z,16.25
2018-11-01T11:06:56.405Z,18.75
2018-11-01T11:26:25.783Z,15.98
2018-11-01T11:28:55.232Z,15.68
2018-11-01T11:31:23.638Z,14.15
2018-11-01T11:33:52.076Z,14.87
2018-11-01T11:36:20.726Z,18.50
2018-11-01T11:38:49.222Z,16.85
2018-11-01T11:41:17.701Z,18.35
2018-11-01T11:43:46.288Z,15.20
2018-11-01T11:46:14.761Z,14.13
2018-11-01T11:48:43.591Z,20.45
2018-11-01T11:51:12.455Z,17.65
2018-11-01T11:53:41.217Z,15.83
2018-11-01T11:56:10.531Z,14.63
2018-11-01T11:58:39.631Z,16.27
2018-11-01T12:01:08.310Z,13.30
2018-11-01T12:03:37.024Z,14.05
2018-11-01T12:06:12.115Z,15.30
2018-11-01T12:08:41.160Z,15.80
2018-11-01T12:11:09.717Z,11.78
2018-11-01T12:13:38.315Z,11.90
2018-11-01T12:16:06.881Z,13.78
2018-11-01T12:18:35.750Z,15.43
2018-11-01T12:21:04.450Z,14.58
2018-11-01T12:23:33.146Z,15.83
2018-11-01T12:26:02.248Z,14.80
2018-11-01T12:28:55.750Z,11.70
2018-11-01T12:31:39.439Z,12.45
2018-11-01T12:34:08.085Z,15.30
2018-11-01T12:36:36.460Z,15.90
2018-11-01T12:39:06.524Z,16.70
2018-11-01T12:41:35.278Z,9.35
2018-11-01T12:44:03.875Z,5.00
2018-11-01T12:46:32.374Z,3.37
2018-11-01T12:49:01.393Z,3.60
2018-11-01T12:51:30.233Z,3.83
2018-11-01T12:53:59.121Z,2.52
2018-11-01T12:56:28.565Z,4.45
2018-11-01T12:58:57.057Z,3.75
2018-11-01T13:01:26.643Z,4.30
2018-11-01T13:03:55.215Z,2.72
2018-11-01T13:06:24.137Z,8.68
2018-11-01T13:08:53.928Z,7.55
2018-11-01T13:11:22.887Z,10.48
2018-11-01T13:13:51.665Z,3.00
2018-11-01T13:16:20.165Z,3.33
2018-11-01T13:18:48.645Z,3.27
2018-11-01T13:21:17.253Z,2.98
2018-11-01T13:23:45.761Z,1.80
2018-11-01T13:26:14.228Z,2.22
2018-11-01T13:28:42.948Z,1.70
2018-11-01T13:31:11.511Z,2.80
2018-11-01T13:33:40.101Z,2.10
2018-11-01T13:36:08.664Z,3.42
2018-11-01T13:38:37.275Z,5.37
2018-11-01T13:41:06.810Z,9.40
2018-11-01T13:43:35.218Z,4.80
2018-11-01T13:46:03.791Z,4.30
2018-11-01T13:48:32.690Z,4.55
2018-11-01T13:51:01.014Z,3.27
2018-11-01T13:53:30.829Z,2.15
2018-11-01T13:55:59.725Z,2.90
2018-11-01T13:58:28.459Z,2.75
2018-11-01T14:00:57.181Z,6.42
2018-11-01T14:03:25.870Z,5.22
2018-11-01T14:05:55.019Z,5.33
2018-11-01T14:08:24.148Z,1.60
2018-11-01T14:10:55.780Z,3.50
2018-11-01T14:13:24.920Z,2.55
2018-11-01T14:15:55.055Z,1.80
2018-11-01T14:18:24.524Z,3.52
2018-11-01T14:20:54.184Z,3.00
2018-11-01T14:23:24.557Z,1.52
2018-11-01T14:25:54.590Z,2.25
2018-11-01T14:28:23.357Z,1.72
2018-11-01T14:30:58.630Z,2.90
2018-11-01T14:33:27.201Z,2.50
2018-11-01T14:35:55.856Z,2.90
2018-11-01T14:38:24.903Z,7.37
2018-11-01T14:40:53.345Z,4.03
2018-11-01T14:43:22.435Z,4.35
2018-11-01T14:45:50.779Z,3.17
2018-11-01T14:48:19.673Z,7.62
2018-11-01T14:50:48.193Z,6.40
2018-11-01T14:53:17.792Z,7.20
2018-11-01T14:55:46.620Z,6.72
2018-11-01T14:58:15.738Z,7.58
2018-11-01T15:00:43.663Z,5.42
2018-11-01T15:03:13.002Z,5.72
2018-11-01T15:05:41.514Z,7.15
2018-11-01T15:08:10.083Z,5.28
2018-11-01T15:10:38.625Z,3.87
2018-11-01T15:13:07.513Z,11.48
2018-11-01T15:15:36.463Z,6.92
2018-11-01T15:18:05.824Z,10.43
2018-11-01T15:20:34.675Z,10.25
2018-11-01T15:23:03.445Z,4.20
2018-11-01T15:25:32.280Z,9.20
2018-11-01T15:28:01.131Z,9.98
2018-11-01T15:30:29.556Z,7.92
2018-11-01T15:32:58.197Z,7.60
2018-11-01T15:35:27.387Z,10.45
2018-11-01T15:37:56.505Z,5.80
2018-11-01T15:40:25.274Z,8.68
2018-11-01T15:42:53.886Z,8.50
2018-11-01T15:45:22.476Z,5.83
2018-11-01T15:47:51.841Z,12.20
2018-11-01T15:50:20.280Z,6.80
2018-11-01T15:52:48.832Z,6.20
2018-11-01T15:55:17.968Z,6.53
2018-11-01T15:57:47.172Z,4.95
2018-11-01T16:00:15.636Z,5.42
2018-11-01T16:02:45.044Z,12.23
2018-11-01T16:05:14.395Z,9.83
2018-11-01T16:07:42.903Z,9.55
2018-11-01T16:10:12.069Z,7.62
2018-11-01T16:12:40.678Z,6.67
2018-11-01T16:15:13.270Z,8.18
2018-11-01T16:17:41.707Z,9.95
2018-11-01T16:20:10.397Z,7.65
2018-11-01T16:22:40.806Z,6.53
2018-11-01T16:25:09.392Z,9.70
2018-11-01T16:27:39.579Z,10.20
2018-11-01T16:30:08.822Z,7.42
2018-11-01T16:32:37.259Z,7.08
2018-11-01T16:35:06.604Z,8.30
2018-11-01T16:37:35.493Z,8.98
2018-11-01T16:40:06.104Z,8.45
2018-11-01T16:42:34.541Z,9.48
2018-11-01T16:45:02.973Z,13.03
2018-11-01T16:47:31.509Z,9.15
2018-11-01T16:50:02.728Z,10.50
2018-11-01T16:52:31.261Z,10.40
2018-11-01T16:54:59.786Z,14.23
2018-11-01T16:57:28.284Z,10.15
2018-11-01T16:59:56.643Z,9.75
2018-11-01T17:02:25.135Z,10.30
2018-11-01T17:04:53.610Z,21.20
2018-11-01T17:07:22.434Z,8.90
2018-11-01T17:09:50.931Z,9.45
2018-11-01T17:12:19.593Z,8.30
2018-11-01T17:14:48.223Z,8.78
2018-11-01T17:17:16.816Z,8.30
2018-11-01T17:19:45.544Z,9.43
2018-11-01T17:22:13.983Z,11.40
2018-11-01T17:24:42.638Z,9.75
2018-11-01T17:27:11.184Z,15.60
2018-11-01T17:29:40.214Z,14.80
2018-11-01T17:32:11.454Z,11.20
2018-11-01T17:34:41.497Z,10.15
2018-11-01T17:37:12.382Z,9.30
2018-11-01T17:39:40.982Z,9.93
2018-11-01T17:42:09.491Z,8.08
2018-11-01T17:44:40.008Z,10.08
2018-11-01T17:47:10.986Z,9.40
2018-11-01T17:53:22.009Z,7.97
2018-11-01T17:55:50.613Z,11.97
2018-11-01T17:58:18.995Z,15.15
2018-11-01T18:00:47.775Z,10.82
2018-11-01T18:03:16.237Z,11.90
2018-11-01T18:05:44.901Z,11.00
2018-11-01T18:08:13.510Z,7.67
2018-11-01T18:10:42.143Z,10.03
2018-11-01T18:13:11.208Z,11.15
2018-11-01T18:15:39.876Z,10.82
2018-11-01T18:18:08.551Z,10.88
2018-11-01T18:20:37.397Z,9.80
2018-11-01T18:23:06.465Z,9.10
2018-11-01T18:25:39.738Z,13.03
2018-11-01T18:28:08.342Z,11.65
2018-11-01T18:30:37.114Z,14.75
2018-11-01T18:33:06.574Z,13.65
2018-11-01T18:35:35.033Z,13.90
2018-11-01T18:38:04.157Z,17.05
2018-11-01T18:40:33.840Z,15.50
2018-11-01T18:43:07.217Z,16.75
2018-11-01T18:45:35.568Z,13.30
2018-11-01T18:48:05.675Z,13.83
2018-11-01T18:50:34.464Z,15.23
2018-11-01T18:53:03.421Z,21.50
2018-11-01T18:55:31.817Z,15.53
2018-11-01T18:58:00.557Z,14.20
2018-11-01T19:00:29.303Z,15.05
2018-11-01T19:02:57.835Z,22.58
2018-11-01T19:05:26.323Z,14.53
2018-11-01T19:07:54.699Z,13.50
2018-11-01T19:10:23.224Z,15.23
2018-11-01T19:12:53.309Z,13.05
2018-11-01T19:15:21.783Z,14.98
2018-11-01T19:17:50.610Z,14.78
2018-11-01T19:20:19.030Z,12.68
2018-11-01T19:22:47.474Z,12.60
2018-11-01T19:27:55.346Z,15.40
2018-11-01T19:33:03.688Z,12.85
2018-11-01T19:35:32.344Z,20.40
2018-11-01T19:38:00.823Z,12.68
2018-11-01T19:40:30.302Z,13.50
2018-11-01T19:42:59.126Z,17.30
2018-11-01T19:45:27.893Z,15.20
2018-11-01T19:47:56.764Z,14.95
2018-11-01T19:50:26.290Z,13.98
2018-11-01T19:52:55.182Z,11.60
2018-11-01T19:55:23.933Z,11.88
2018-11-01T19:57:53.547Z,13.88
2018-11-01T20:00:22.115Z,12.75
2018-11-01T20:02:51.601Z,11.00
2018-11-01T20:05:20.339Z,15.13
2018-11-01T20:07:48.957Z,12.90
2018-11-01T20:10:17.626Z,15.28
2018-11-01T20:12:47.148Z,12.88
2018-11-01T20:15:16.080Z,10.48
2018-11-01T20:17:47.842Z,8.00
2018-11-01T20:20:17.426Z,10.75
2018-11-01T20:22:49.494Z,11.53
2018-11-01T20:25:22.705Z,11.25
2018-11-01T20:27:58.028Z,6.58
2018-11-01T20:30:29.459Z,14.38
2018-11-01T20:36:35.029Z,6.70
2018-11-01T20:39:09.831Z,7.15
2018-11-01T20:41:39.142Z,5.08
2018-11-01T20:44:08.872Z,5.83
2018-11-01T20:46:40.315Z,8.13
2018-11-01T20:49:11.252Z,7.40
2018-11-01T20:51:43.634Z,7.60
2018-11-01T20:54:16.023Z,29.10
2018-11-01T20:56:53.892Z,9.78
2018-11-01T20:59:29.962Z,6.97
2018-11-01T21:02:04.337Z,4.15
2018-11-01T21:04:45.323Z,7.25
2018-11-01T21:07:13.797Z,6.60
2018-11-01T21:09:42.474Z,5.90
2018-11-01T21:12:11.382Z,6.62
2018-11-01T21:14:40.623Z,9.40
2018-11-01T21:17:11.151Z,9.15
2018-11-01T21:19:40.225Z,6.42
2018-11-01T21:22:12.900Z,4.90
2018-11-01T21:24:42.622Z,5.62
2018-11-01T21:27:13.126Z,4.05
2018-11-01T21:29:42.013Z,10.55
2018-11-01T21:32:10.894Z,4.20
2018-11-01T21:34:40.154Z,4.03
2018-11-01T21:37:08.616Z,10.82
2018-11-01T21:39:37.402Z,5.22
2018-11-01T21:42:06.325Z,5.28
2018-11-01T21:44:35.215Z,4.53
2018-11-01T21:47:05.257Z,6.37
2018-11-01T21:49:35.061Z,4.65
2018-11-01T21:52:04.290Z,4.03
2018-11-01T21:54:33.392Z,3.83
2018-11-01T21:57:02.881Z,4.92
2018-11-01T21:59:32.088Z,5.03
2018-11-01T22:02:00.598Z,3.58
2018-11-01T22:04:29.337Z,6.78
2018-11-01T22:06:58.609Z,6.55
2018-11-01T22:09:28.609Z,5.03
2018-11-01T22:11:57.600Z,6.08
2018-11-01T22:14:26.837Z,4.55
2018-11-01T22:16:56.156Z,3.75
2018-11-01T22:19:24.609Z,5.30
2018-11-01T22:21:53.137Z,3.95
2018-11-01T22:24:21.694Z,4.12
2018-11-01T22:26:50.061Z,5.62
2018-11-01T22:29:18.595Z,3.02
2018-11-01T22:31:47.256Z,4.75
2018-11-01T22:34:15.594Z,4.92
2018-11-01T22:36:44.048Z,5.33
2018-11-01T22:39:12.566Z,5.05
2018-11-01T22:41:40.953Z,5.95
2018-11-01T22:44:10.201Z,6.15
2018-11-01T22:46:38.700Z,5.87
2018-11-01T22:49:07.516Z,5.25
2018-11-01T22:51:36.068Z,4.95
2018-11-01T22:54:05.414Z,4.35
2018-11-01T22:56:38.693Z,5.90
2018-11-01T22:59:12.174Z,5.67
2018-11-01T23:01:43.760Z,6.33
2018-11-01T23:04:12.916Z,6.08
2018-11-01T23:06:41.610Z,6.35
2018-11-01T23:09:11.672Z,4.87
2018-11-01T23:11:40.444Z,4.22
2018-11-01T23:14:09.356Z,7.70
2018-11-01T23:16:37.872Z,5.10
2018-11-01T23:19:08.033Z,8.48
2018-11-01T23:21:36.673Z,4.25
2018-11-01T23:24:06.118Z,2.62
2018-11-01T23:26:34.726Z,5.47
2018-11-01T23:29:04.419Z,3.77
2018-11-01T23:31:33.666Z,4.53
2018-11-01T23:34:04.240Z,11.97
2018-11-01T23:36:38.913Z,5.33
2018-11-01T23:39:15.313Z,5.47
2018-11-01T23:41:49.596Z,5.33
2018-11-01T23:44:23.886Z,7.40
2018-11-01T23:46:57.990Z,5.62
2018-11-01T23:49:34.353Z,4.72
2018-11-01T23:52:07.317Z,4.10
2018-11-01T23:54:35.964Z,5.03
2018-11-01T23:57:11.655Z,6.05
2018-11-01T23:59:42.201Z,4.72
